Startpagina
METAR-TAF:

METAR-TAF

Vliegvelden :

Punta Arenas, Chili

breedte: 53-00S, lengte: 070-51W, hoogte: 37 m

Actueel weer

Dit bericht is 1 uur en het 6 minuten geleden gemaakt, om 21:00 UTC
Wind 25 kt uit het westen
Temperatuur 4°C
Vochtigheid 65%
Druk 1013 hPa
Zicht 10 km of meer
Weinig wolken op 4000 ft

METAR: SCCI 182100Z 26025KT 9999 FEW040 04/M02 Q1013 NOSIG

Tijdstip: 19:06 (22:06 UTC)

Verwachting

Dit bericht is 5 uur en het 49 minuten geleden gemaakt, om 16:17 UTC
Verwachting geldig van 18 om 18 UTC tot 19 om 18 UTC
Wind 22 kt uit het westzuidwesten met uitschieters tot 33 kt
Zicht 10 km of meer
Weinig wolken op 4000 ft
Wijzigt naar
van 18 om 22 UTC tot 19 om 00 UTC
Wind 30 kt uit het westen met uitschieters tot 40 kt
Zicht: 9000 m
Verspreide wolken op 3000 ft
Wijzigt naar
van 19 om 06 UTC tot 19 om 08 UTC
Wind 35 kt uit het westen met uitschieters tot 50 kt

TAF: SCCI 181617Z 1818/1918 25022G33KT 9999 FEW040 TX07/1918Z TN03/1912Z BECMG 1822/1900 28030G40KT 9000 SCT030 BECMG 1906/1908 28035G50KT

Waarnemingen en weersverwachtingen van meer dan 4000 vliegvelden (METAR en TAF).

De beschikbare stations zijn de gele en rode punten op de kaart.

Ga met uw muis naar het station om de naam te zien.

Klik dan om waarnemingen en weersverwachtingen te zien.

kaart wijzigen: klik op de groene knoppen met een zwart kruis om in te zoomen, op de groene knop met een streepje om uit te zoomen of op de groene pijlen voor aangrenzende kaarten.


METAR-TAF: